Albert, Oklahoma
Current Conditions -  °F | °C
As of 3:15 PM on Saturday 22 Nov 2014 (Local Time) from KOJA Reporting Station
Overcast Overcast  
Wind Chill: 54°   Ceiling: 400
Heat Index: 54°   Visibility: 10mi
Dew Point: 52°   Wind: 13mph
Humidity: 94%   Direction: 170°S
Pressure: 29.79"   Gusts: 26mph
Location:  35.23°N, 98.41°W
Report Text: KOJA 222115Z AUTO 17011G23KT 10SM OVC004 12/11 A2979 RMK AO2 LTG DSNT SE AND S
Loading
Personal Weather Stations






























Interactive Weather Map New forecast layout! Learn more

10-Day Weather Forecast

Advertisements
Track Severe Weather on mobile